sensor_id;sensor_type;location;lat;lon;timestamp;pressure;altitude;pressure_sealevel;temperature
79488;BMP180;68949;53.176;18.088;2023-04-16T00:01:17;100591.80;;;
79488;BMP180;68949;53.176;18.088;2023-04-16T00:03:44;100587.20;;;
79488;BMP180;68949;53.176;18.088;2023-04-16T00:06:11;100587.00;;;
79488;BMP180;68949;53.176;18.088;2023-04-16T00:08:38;100585.60;;;
79488;BMP180;68949;53.176;18.088;2023-04-16T00:11:06;100589.40;;;
79488;BMP180;68949;53.176;18.088;2023-04-16T00:13:33;100585.60;;;
79488;BMP180;68949;53.176;18.088;2023-04-16T00:15:59;100587.60;;;
79488;BMP180;68949;53.176;18.088;2023-04-16T00:18:26;100593.00;;;
79488;BMP180;68949;53.176;18.088;2023-04-16T00:20:53;100590.00;;;
79488;BMP180;68949;53.176;18.088;2023-04-16T00:23:20;100586.80;;;
79488;BMP180;68949;53.176;18.088;2023-04-16T00:25:47;100592.80;;;
79488;BMP180;68949;53.176;18.088;2023-04-16T00:28:13;100589.80;;;
79488;BMP180;68949;53.176;18.088;2023-04-16T00:30:40;100590.80;;;
79488;BMP180;68949;53.176;18.088;2023-04-16T00:33:07;100591.40;;;
79488;BMP180;68949;53.176;18.088;2023-04-16T00:35:34;100587.00;;;
79488;BMP180;68949;53.176;18.088;2023-04-16T00:38:01;100590.00;;;
79488;BMP180;68949;53.176;18.088;2023-04-16T00:40:28;100593.20;;;
79488;BMP180;68949;53.176;18.088;2023-04-16T00:42:55;100589.40;;;
79488;BMP180;68949;53.176;18.088;2023-04-16T00:45:21;100586.40;;;
79488;BMP180;68949;53.176;18.088;2023-04-16T00:47:48;100590.80;;;
79488;BMP180;68949;53.176;18.088;2023-04-16T00:50:17;100591.40;;;
79488;BMP180;68949;53.176;18.088;2023-04-16T00:52:48;100596.60;;;
79488;BMP180;68949;53.176;18.088;2023-04-16T00:55:15;100594.60;;;
79488;BMP180;68949;53.176;18.088;2023-04-16T00:57:44;100597.60;;;
79488;BMP180;68949;53.176;18.088;2023-04-16T01:00:12;100599.00;;;
79488;BMP180;68949;53.176;18.088;2023-04-16T01:02:39;100600.20;;;
79488;BMP180;68949;53.176;18.088;2023-04-16T01:05:06;100597.40;;;
79488;BMP180;68949;53.176;18.088;2023-04-16T01:07:33;100601.40;;;
79488;BMP180;68949;53.176;18.088;2023-04-16T01:10:00;100594.00;;;
79488;BMP180;68949;53.176;18.088;2023-04-16T01:12:27;100600.20;;;
79488;BMP180;68949;53.176;18.088;2023-04-16T01:14:54;100597.40;;;
79488;BMP180;68949;53.176;18.088;2023-04-16T01:17:21;100597.20;;;
79488;BMP180;68949;53.176;18.088;2023-04-16T01:19:48;100596.20;;;
79488;BMP180;68949;53.176;18.088;2023-04-16T01:22:15;100599.00;;;
79488;BMP180;68949;53.176;18.088;2023-04-16T01:24:41;100597.20;;;
79488;BMP180;68949;53.176;18.088;2023-04-16T01:27:10;100600.00;;;
79488;BMP180;68949;53.176;18.088;2023-04-16T01:29:36;100595.20;;;
79488;BMP180;68949;53.176;18.088;2023-04-16T01:32:04;100598.80;;;
79488;BMP180;68949;53.176;18.088;2023-04-16T01:34:36;100593.80;;;
79488;BMP180;68949;53.176;18.088;2023-04-16T01:37:03;100596.00;;;
79488;BMP180;68949;53.176;18.088;2023-04-16T01:39:29;100597.40;;;
79488;BMP180;68949;53.176;18.088;2023-04-16T01:41:57;100601.40;;;
79488;BMP180;68949;53.176;18.088;2023-04-16T01:44:23;100598.80;;;
79488;BMP180;68949;53.176;18.088;2023-04-16T01:46:51;100599.60;;;
79488;BMP180;68949;53.176;18.088;2023-04-16T01:49:17;100600.40;;;
79488;BMP180;68949;53.176;18.088;2023-04-16T01:51:44;100609.80;;;
79488;BMP180;68949;53.176;18.088;2023-04-16T01:54:11;100606.20;;;
79488;BMP180;68949;53.176;18.088;2023-04-16T01:56:39;100604.00;;;
79488;BMP180;68949;53.176;18.088;2023-04-16T01:59:06;100602.20;;;
79488;BMP180;68949;53.176;18.088;2023-04-16T02:01:37;100603.80;;;
79488;BMP180;68949;53.176;18.088;2023-04-16T02:04:04;100603.00;;;
79488;BMP180;68949;53.176;18.088;2023-04-16T02:06:32;100604.80;;;
79488;BMP180;68949;53.176;18.088;2023-04-16T02:08:58;100601.40;;;
79488;BMP180;68949;53.176;18.088;2023-04-16T02:11:25;100606.60;;;
79488;BMP180;68949;53.176;18.088;2023-04-16T02:13:52;100608.80;;;
79488;BMP180;68949;53.176;18.088;2023-04-16T02:16:19;100611.20;;;
79488;BMP180;68949;53.176;18.088;2023-04-16T02:18:52;100607.40;;;
79488;BMP180;68949;53.176;18.088;2023-04-16T02:21:20;100608.40;;;
79488;BMP180;68949;53.176;18.088;2023-04-16T02:23:46;100615.20;;;
79488;BMP180;68949;53.176;18.088;2023-04-16T02:26:18;100615.80;;;
79488;BMP180;68949;53.176;18.088;2023-04-16T02:28:45;100614.60;;;
79488;BMP180;68949;53.176;18.088;2023-04-16T02:31:12;100615.20;;;
79488;BMP180;68949;53.176;18.088;2023-04-16T02:33:43;100616.00;;;
79488;BMP180;68949;53.176;18.088;2023-04-16T02:36:10;100616.80;;;
79488;BMP180;68949;53.176;18.088;2023-04-16T02:38:38;100612.80;;;
79488;BMP180;68949;53.176;18.088;2023-04-16T02:41:05;100620.20;;;
79488;BMP180;68949;53.176;18.088;2023-04-16T02:43:33;100620.60;;;
79488;BMP180;68949;53.176;18.088;2023-04-16T02:46:00;100618.40;;;
79488;BMP180;68949;53.176;18.088;2023-04-16T02:48:26;100618.80;;;
79488;BMP180;68949;53.176;18.088;2023-04-16T02:50:54;100621.40;;;
79488;BMP180;68949;53.176;18.088;2023-04-16T02:53:21;100623.20;;;
79488;BMP180;68949;53.176;18.088;2023-04-16T02:55:53;100625.40;;;
79488;BMP180;68949;53.176;18.088;2023-04-16T02:58:23;100619.40;;;
79488;BMP180;68949;53.176;18.088;2023-04-16T03:00:52;100628.40;;;
79488;BMP180;68949;53.176;18.088;2023-04-16T03:03:20;100629.20;;;
79488;BMP180;68949;53.176;18.088;2023-04-16T03:05:47;100626.60;;;
79488;BMP180;68949;53.176;18.088;2023-04-16T03:08:14;100624.80;;;
79488;BMP180;68949;53.176;18.088;2023-04-16T03:10:40;100629.80;;;
79488;BMP180;68949;53.176;18.088;2023-04-16T03:13:07;100632.00;;;
79488;BMP180;68949;53.176;18.088;2023-04-16T03:15:34;100633.60;;;
79488;BMP180;68949;53.176;18.088;2023-04-16T03:18:01;100637.80;;;
79488;BMP180;68949;53.176;18.088;2023-04-16T03:20:28;100639.40;;;
79488;BMP180;68949;53.176;18.088;2023-04-16T03:22:55;100636.00;;;
79488;BMP180;68949;53.176;18.088;2023-04-16T03:25:22;100639.00;;;
79488;BMP180;68949;53.176;18.088;2023-04-16T03:27:49;100642.80;;;
79488;BMP180;68949;53.176;18.088;2023-04-16T03:30:16;100638.20;;;
79488;BMP180;68949;53.176;18.088;2023-04-16T03:32:43;100644.00;;;
79488;BMP180;68949;53.176;18.088;2023-04-16T03:35:10;100643.40;;;
79488;BMP180;68949;53.176;18.088;2023-04-16T03:37:38;100648.20;;;
79488;BMP180;68949;53.176;18.088;2023-04-16T03:40:06;100657.40;;;
79488;BMP180;68949;53.176;18.088;2023-04-16T03:42:32;100646.60;;;
79488;BMP180;68949;53.176;18.088;2023-04-16T03:44:59;100653.80;;;
79488;BMP180;68949;53.176;18.088;2023-04-16T03:47:26;100653.00;;;
79488;BMP180;68949;53.176;18.088;2023-04-16T03:49:55;100658.00;;;
79488;BMP180;68949;53.176;18.088;2023-04-16T03:52:22;100656.40;;;
79488;BMP180;68949;53.176;18.088;2023-04-16T03:54:49;100656.40;;;
79488;BMP180;68949;53.176;18.088;2023-04-16T03:57:25;100656.20;;;
79488;BMP180;68949;53.176;18.088;2023-04-16T03:59:53;100664.00;;;
79488;BMP180;68949;53.176;18.088;2023-04-16T04:02:21;100663.60;;;
79488;BMP180;68949;53.176;18.088;2023-04-16T04:04:47;100667.00;;;
79488;BMP180;68949;53.176;18.088;2023-04-16T04:07:15;100674.00;;;
79488;BMP180;68949;53.176;18.088;2023-04-16T04:09:42;100676.40;;;
79488;BMP180;68949;53.176;18.088;2023-04-16T04:12:08;100674.80;;;
79488;BMP180;68949;53.176;18.088;2023-04-16T04:14:36;100677.60;;;
79488;BMP180;68949;53.176;18.088;2023-04-16T04:17:07;100686.40;;;
79488;BMP180;68949;53.176;18.088;2023-04-16T04:19:34;100686.20;;;
79488;BMP180;68949;53.176;18.088;2023-04-16T04:22:02;100688.00;;;
79488;BMP180;68949;53.176;18.088;2023-04-16T04:24:29;100685.20;;;
79488;BMP180;68949;53.176;18.088;2023-04-16T04:26:56;100691.40;;;
79488;BMP180;68949;53.176;18.088;2023-04-16T04:29:23;100687.60;;;
79488;BMP180;68949;53.176;18.088;2023-04-16T04:31:50;100687.40;;;
79488;BMP180;68949;53.176;18.088;2023-04-16T04:34:17;100697.00;;;
79488;BMP180;68949;53.176;18.088;2023-04-16T04:36:44;100690.60;;;
79488;BMP180;68949;53.176;18.088;2023-04-16T04:39:12;100692.20;;;
79488;BMP180;68949;53.176;18.088;2023-04-16T04:41:40;100691.20;;;
79488;BMP180;68949;53.176;18.088;2023-04-16T04:44:07;100691.00;;;
79488;BMP180;68949;53.176;18.088;2023-04-16T04:46:34;100694.20;;;
79488;BMP180;68949;53.176;18.088;2023-04-16T04:49:01;100692.00;;;
79488;BMP180;68949;53.176;18.088;2023-04-16T04:51:28;100698.40;;;
79488;BMP180;68949;53.176;18.088;2023-04-16T04:53:55;100700.00;;;
79488;BMP180;68949;53.176;18.088;2023-04-16T04:56:21;100693.20;;;
79488;BMP180;68949;53.176;18.088;2023-04-16T04:58:49;100697.60;;;
79488;BMP180;68949;53.176;18.088;2023-04-16T05:01:16;100696.80;;;
79488;BMP180;68949;53.176;18.088;2023-04-16T05:03:43;100699.80;;;
79488;BMP180;68949;53.176;18.088;2023-04-16T05:06:09;100709.00;;;
79488;BMP180;68949;53.176;18.088;2023-04-16T05:08:36;100707.20;;;
79488;BMP180;68949;53.176;18.088;2023-04-16T05:11:03;100709.00;;;
79488;BMP180;68949;53.176;18.088;2023-04-16T05:13:30;100709.40;;;
79488;BMP180;68949;53.176;18.088;2023-04-16T05:15:57;100711.00;;;
79488;BMP180;68949;53.176;18.088;2023-04-16T05:18:23;100713.60;;;
79488;BMP180;68949;53.176;18.088;2023-04-16T05:20:50;100716.40;;;
79488;BMP180;68949;53.176;18.088;2023-04-16T05:23:17;100717.40;;;
79488;BMP180;68949;53.176;18.088;2023-04-16T05:25:43;100719.80;;;
79488;BMP180;68949;53.176;18.088;2023-04-16T05:28:10;100730.60;;;
79488;BMP180;68949;53.176;18.088;2023-04-16T05:30:37;100722.60;;;
79488;BMP180;68949;53.176;18.088;2023-04-16T05:33:03;100724.20;;;
79488;BMP180;68949;53.176;18.088;2023-04-16T05:35:30;100732.00;;;
79488;BMP180;68949;53.176;18.088;2023-04-16T05:37:56;100738.80;;;
79488;BMP180;68949;53.176;18.088;2023-04-16T05:40:23;100736.80;;;
79488;BMP180;68949;53.176;18.088;2023-04-16T05:42:50;100736.80;;;
79488;BMP180;68949;53.176;18.088;2023-04-16T05:45:16;100739.60;;;
79488;BMP180;68949;53.176;18.088;2023-04-16T05:47:43;100736.40;;;
79488;BMP180;68949;53.176;18.088;2023-04-16T05:50:10;100741.80;;;
79488;BMP180;68949;53.176;18.088;2023-04-16T05:52:37;100736.80;;;
79488;BMP180;68949;53.176;18.088;2023-04-16T05:55:04;100741.40;;;
79488;BMP180;68949;53.176;18.088;2023-04-16T05:57:32;100738.80;;;
79488;BMP180;68949;53.176;18.088;2023-04-16T05:59:59;100740.60;;;
79488;BMP180;68949;53.176;18.088;2023-04-16T06:02:25;100735.80;;;
79488;BMP180;68949;53.176;18.088;2023-04-16T06:04:52;100739.40;;;
79488;BMP180;68949;53.176;18.088;2023-04-16T06:07:19;100743.20;;;
79488;BMP180;68949;53.176;18.088;2023-04-16T06:09:45;100740.60;;;
79488;BMP180;68949;53.176;18.088;2023-04-16T06:12:12;100746.80;;;
79488;BMP180;68949;53.176;18.088;2023-04-16T06:14:39;100747.40;;;
79488;BMP180;68949;53.176;18.088;2023-04-16T06:17:05;100746.20;;;
79488;BMP180;68949;53.176;18.088;2023-04-16T06:19:32;100747.80;;;
79488;BMP180;68949;53.176;18.088;2023-04-16T06:21:59;100746.20;;;
79488;BMP180;68949;53.176;18.088;2023-04-16T06:24:25;100753.40;;;
79488;BMP180;68949;53.176;18.088;2023-04-16T06:26:52;100757.60;;;
79488;BMP180;68949;53.176;18.088;2023-04-16T06:29:19;100764.80;;;
79488;BMP180;68949;53.176;18.088;2023-04-16T06:31:47;100762.60;;;
79488;BMP180;68949;53.176;18.088;2023-04-16T06:34:14;100766.00;;;
79488;BMP180;68949;53.176;18.088;2023-04-16T06:36:41;100769.80;;;
79488;BMP180;68949;53.176;18.088;2023-04-16T06:39:08;100766.40;;;
79488;BMP180;68949;53.176;18.088;2023-04-16T06:41:35;100767.00;;;
79488;BMP180;68949;53.176;18.088;2023-04-16T06:44:02;100774.80;;;
79488;BMP180;68949;53.176;18.088;2023-04-16T06:46:28;100773.20;;;
79488;BMP180;68949;53.176;18.088;2023-04-16T06:48:55;100773.40;;;
79488;BMP180;68949;53.176;18.088;2023-04-16T06:51:21;100778.60;;;
79488;BMP180;68949;53.176;18.088;2023-04-16T06:53:48;100776.80;;;
79488;BMP180;68949;53.176;18.088;2023-04-16T06:56:15;100773.60;;;
79488;BMP180;68949;53.176;18.088;2023-04-16T06:58:41;100776.40;;;
79488;BMP180;68949;53.176;18.088;2023-04-16T07:01:08;100779.00;;;
79488;BMP180;68949;53.176;18.088;2023-04-16T07:03:35;100784.00;;;
79488;BMP180;68949;53.176;18.088;2023-04-16T07:06:02;100784.40;;;
79488;BMP180;68949;53.176;18.088;2023-04-16T07:08:29;100783.40;;;
79488;BMP180;68949;53.176;18.088;2023-04-16T07:10:55;100785.40;;;
79488;BMP180;68949;53.176;18.088;2023-04-16T07:13:22;100794.60;;;
79488;BMP180;68949;53.176;18.088;2023-04-16T07:15:49;100787.80;;;
79488;BMP180;68949;53.176;18.088;2023-04-16T07:18:15;100793.20;;;
79488;BMP180;68949;53.176;18.088;2023-04-16T07:20:42;100796.20;;;
79488;BMP180;68949;53.176;18.088;2023-04-16T07:23:09;100794.00;;;
79488;BMP180;68949;53.176;18.088;2023-04-16T07:25:36;100796.80;;;
79488;BMP180;68949;53.176;18.088;2023-04-16T07:28:03;100801.20;;;
79488;BMP180;68949;53.176;18.088;2023-04-16T07:30:30;100802.60;;;
79488;BMP180;68949;53.176;18.088;2023-04-16T07:33:02;100803.60;;;
79488;BMP180;68949;53.176;18.088;2023-04-16T07:35:30;100798.80;;;
79488;BMP180;68949;53.176;18.088;2023-04-16T07:37:57;100803.80;;;
79488;BMP180;68949;53.176;18.088;2023-04-16T07:40:24;100804.00;;;
79488;BMP180;68949;53.176;18.088;2023-04-16T07:42:51;100810.20;;;
79488;BMP180;68949;53.176;18.088;2023-04-16T07:45:17;100809.60;;;
79488;BMP180;68949;53.176;18.088;2023-04-16T07:47:44;100810.60;;;
79488;BMP180;68949;53.176;18.088;2023-04-16T07:50:12;100809.00;;;
79488;BMP180;68949;53.176;18.088;2023-04-16T07:52:38;100809.80;;;
79488;BMP180;68949;53.176;18.088;2023-04-16T07:55:08;100813.20;;;
79488;BMP180;68949;53.176;18.088;2023-04-16T07:57:35;100818.40;;;
79488;BMP180;68949;53.176;18.088;2023-04-16T08:00:03;100818.20;;;
79488;BMP180;68949;53.176;18.088;2023-04-16T08:02:43;100818.20;;;
79488;BMP180;68949;53.176;18.088;2023-04-16T08:05:09;100819.60;;;
79488;BMP180;68949;53.176;18.088;2023-04-16T08:07:38;100818.60;;;
79488;BMP180;68949;53.176;18.088;2023-04-16T08:10:05;100826.00;;;
79488;BMP180;68949;53.176;18.088;2023-04-16T08:12:32;100824.40;;;
79488;BMP180;68949;53.176;18.088;2023-04-16T08:14:58;100826.20;;;
79488;BMP180;68949;53.176;18.088;2023-04-16T08:17:25;100830.40;;;
79488;BMP180;68949;53.176;18.088;2023-04-16T08:19:53;100830.80;;;
79488;BMP180;68949;53.176;18.088;2023-04-16T08:22:20;100834.80;;;
79488;BMP180;68949;53.176;18.088;2023-04-16T08:24:47;100837.20;;;
79488;BMP180;68949;53.176;18.088;2023-04-16T08:27:14;100841.40;;;
79488;BMP180;68949;53.176;18.088;2023-04-16T08:29:42;100845.60;;;
79488;BMP180;68949;53.176;18.088;2023-04-16T08:32:09;100843.80;;;
79488;BMP180;68949;53.176;18.088;2023-04-16T08:34:36;100844.60;;;
79488;BMP180;68949;53.176;18.088;2023-04-16T08:37:03;100850.20;;;
79488;BMP180;68949;53.176;18.088;2023-04-16T08:39:30;100855.20;;;
79488;BMP180;68949;53.176;18.088;2023-04-16T08:41:57;100854.60;;;
79488;BMP180;68949;53.176;18.088;2023-04-16T08:44:27;100861.20;;;
79488;BMP180;68949;53.176;18.088;2023-04-16T08:46:56;100865.40;;;
79488;BMP180;68949;53.176;18.088;2023-04-16T08:49:25;100863.40;;;
79488;BMP180;68949;53.176;18.088;2023-04-16T08:51:54;100863.80;;;
79488;BMP180;68949;53.176;18.088;2023-04-16T08:54:38;100868.60;;;
79488;BMP180;68949;53.176;18.088;2023-04-16T08:57:11;100872.80;;;
79488;BMP180;68949;53.176;18.088;2023-04-16T08:59:39;100875.20;;;
79488;BMP180;68949;53.176;18.088;2023-04-16T09:02:11;100880.20;;;
79488;BMP180;68949;53.176;18.088;2023-04-16T09:04:40;100885.80;;;
79488;BMP180;68949;53.176;18.088;2023-04-16T09:07:10;100890.00;;;
79488;BMP180;68949;53.176;18.088;2023-04-16T09:09:37;100890.60;;;
79488;BMP180;68949;53.176;18.088;2023-04-16T09:12:07;100893.20;;;
79488;BMP180;68949;53.176;18.088;2023-04-16T09:14:34;100893.40;;;
79488;BMP180;68949;53.176;18.088;2023-04-16T09:17:02;100894.20;;;
79488;BMP180;68949;53.176;18.088;2023-04-16T09:19:29;100896.80;;;
79488;BMP180;68949;53.176;18.088;2023-04-16T09:21:56;100902.20;;;
79488;BMP180;68949;53.176;18.088;2023-04-16T09:24:23;100896.40;;;
79488;BMP180;68949;53.176;18.088;2023-04-16T09:26:52;100894.60;;;
79488;BMP180;68949;53.176;18.088;2023-04-16T09:29:36;100902.00;;;
79488;BMP180;68949;53.176;18.088;2023-04-16T09:32:08;100905.00;;;
79488;BMP180;68949;53.176;18.088;2023-04-16T09:34:55;100907.40;;;
79488;BMP180;68949;53.176;18.088;2023-04-16T09:37:23;100908.40;;;
79488;BMP180;68949;53.176;18.088;2023-04-16T09:40:02;100915.20;;;
79488;BMP180;68949;53.176;18.088;2023-04-16T09:42:35;100912.40;;;
79488;BMP180;68949;53.176;18.088;2023-04-16T09:45:02;100911.60;;;
79488;BMP180;68949;53.176;18.088;2023-04-16T09:47:41;100914.20;;;
79488;BMP180;68949;53.176;18.088;2023-04-16T09:50:15;100912.20;;;
79488;BMP180;68949;53.176;18.088;2023-04-16T09:52:43;100913.20;;;
79488;BMP180;68949;53.176;18.088;2023-04-16T09:55:11;100913.20;;;
79488;BMP180;68949;53.176;18.088;2023-04-16T09:57:39;100910.20;;;
79488;BMP180;68949;53.176;18.088;2023-04-16T10:00:08;100914.80;;;
79488;BMP180;68949;53.176;18.088;2023-04-16T10:02:39;100919.20;;;
79488;BMP180;68949;53.176;18.088;2023-04-16T10:05:07;100921.20;;;
79488;BMP180;68949;53.176;18.088;2023-04-16T10:07:36;100927.80;;;
79488;BMP180;68949;53.176;18.088;2023-04-16T10:10:03;100923.40;;;
79488;BMP180;68949;53.176;18.088;2023-04-16T10:12:30;100924.00;;;
79488;BMP180;68949;53.176;18.088;2023-04-16T10:14:58;100925.40;;;
79488;BMP180;68949;53.176;18.088;2023-04-16T10:17:25;100924.00;;;
79488;BMP180;68949;53.176;18.088;2023-04-16T10:19:57;100923.20;;;
79488;BMP180;68949;53.176;18.088;2023-04-16T10:22:24;100924.40;;;
79488;BMP180;68949;53.176;18.088;2023-04-16T10:24:52;100921.60;;;
79488;BMP180;68949;53.176;18.088;2023-04-16T10:27:19;100924.60;;;
79488;BMP180;68949;53.176;18.088;2023-04-16T10:29:47;100925.80;;;
79488;BMP180;68949;53.176;18.088;2023-04-16T10:32:16;100925.80;;;
79488;BMP180;68949;53.176;18.088;2023-04-16T10:34:44;100930.40;;;
79488;BMP180;68949;53.176;18.088;2023-04-16T10:37:11;100932.80;;;
79488;BMP180;68949;53.176;18.088;2023-04-16T10:39:38;100930.80;;;
79488;BMP180;68949;53.176;18.088;2023-04-16T10:42:11;100930.60;;;
79488;BMP180;68949;53.176;18.088;2023-04-16T10:44:39;100927.60;;;
79488;BMP180;68949;53.176;18.088;2023-04-16T10:47:12;100928.60;;;
79488;BMP180;68949;53.176;18.088;2023-04-16T10:49:40;100929.40;;;
79488;BMP180;68949;53.176;18.088;2023-04-16T10:52:15;100932.20;;;
79488;BMP180;68949;53.176;18.088;2023-04-16T10:54:48;100938.00;;;
79488;BMP180;68949;53.176;18.088;2023-04-16T10:57:18;100935.00;;;
79488;BMP180;68949;53.176;18.088;2023-04-16T10:59:47;100934.60;;;
79488;BMP180;68949;53.176;18.088;2023-04-16T11:02:18;100925.40;;;
79488;BMP180;68949;53.176;18.088;2023-04-16T11:04:47;100926.60;;;
79488;BMP180;68949;53.176;18.088;2023-04-16T11:07:31;100935.00;;;
79488;BMP180;68949;53.176;18.088;2023-04-16T11:10:02;100933.80;;;
79488;BMP180;68949;53.176;18.088;2023-04-16T11:12:40;100926.00;;;
79488;BMP180;68949;53.176;18.088;2023-04-16T11:15:10;100930.40;;;
79488;BMP180;68949;53.176;18.088;2023-04-16T11:17:44;100936.00;;;
79488;BMP180;68949;53.176;18.088;2023-04-16T11:22:43;100939.40;;;
79488;BMP180;68949;53.176;18.088;2023-04-16T11:25:22;100940.20;;;
79488;BMP180;68949;53.176;18.088;2023-04-16T11:27:51;100942.80;;;
79488;BMP180;68949;53.176;18.088;2023-04-16T11:30:28;100948.80;;;
79488;BMP180;68949;53.176;18.088;2023-04-16T11:32:55;100954.80;;;
79488;BMP180;68949;53.176;18.088;2023-04-16T11:35:21;100962.60;;;
79488;BMP180;68949;53.176;18.088;2023-04-16T11:37:48;100958.40;;;
79488;BMP180;68949;53.176;18.088;2023-04-16T11:40:15;100964.00;;;
79488;BMP180;68949;53.176;18.088;2023-04-16T11:42:41;100960.60;;;
79488;BMP180;68949;53.176;18.088;2023-04-16T11:45:11;100967.40;;;
79488;BMP180;68949;53.176;18.088;2023-04-16T11:47:52;100969.20;;;
79488;BMP180;68949;53.176;18.088;2023-04-16T11:50:23;100972.60;;;
79488;BMP180;68949;53.176;18.088;2023-04-16T11:52:53;100976.20;;;
79488;BMP180;68949;53.176;18.088;2023-04-16T11:55:20;100973.40;;;
79488;BMP180;68949;53.176;18.088;2023-04-16T11:57:48;100974.40;;;
79488;BMP180;68949;53.176;18.088;2023-04-16T12:00:15;100980.20;;;
79488;BMP180;68949;53.176;18.088;2023-04-16T12:02:51;100983.60;;;
79488;BMP180;68949;53.176;18.088;2023-04-16T12:05:50;100985.40;;;
79488;BMP180;68949;53.176;18.088;2023-04-16T12:08:28;100987.40;;;
79488;BMP180;68949;53.176;18.088;2023-04-16T12:10:58;100981.60;;;
79488;BMP180;68949;53.176;18.088;2023-04-16T12:13:25;100982.60;;;
79488;BMP180;68949;53.176;18.088;2023-04-16T12:15:54;100986.80;;;
79488;BMP180;68949;53.176;18.088;2023-04-16T12:18:24;100994.40;;;
79488;BMP180;68949;53.176;18.088;2023-04-16T12:20:54;100991.60;;;
79488;BMP180;68949;53.176;18.088;2023-04-16T12:23:29;100988.20;;;
79488;BMP180;68949;53.176;18.088;2023-04-16T12:25:56;100990.20;;;
79488;BMP180;68949;53.176;18.088;2023-04-16T12:28:33;100991.60;;;
79488;BMP180;68949;53.176;18.088;2023-04-16T12:31:02;100989.20;;;
79488;BMP180;68949;53.176;18.088;2023-04-16T12:33:30;100993.20;;;
79488;BMP180;68949;53.176;18.088;2023-04-16T12:35:56;100987.20;;;
79488;BMP180;68949;53.176;18.088;2023-04-16T12:38:23;100987.20;;;
79488;BMP180;68949;53.176;18.088;2023-04-16T12:40:51;100987.20;;;
79488;BMP180;68949;53.176;18.088;2023-04-16T12:43:22;100984.20;;;
79488;BMP180;68949;53.176;18.088;2023-04-16T12:45:48;100985.40;;;
79488;BMP180;68949;53.176;18.088;2023-04-16T12:48:15;100986.20;;;
79488;BMP180;68949;53.176;18.088;2023-04-16T12:50:42;100983.80;;;
79488;BMP180;68949;53.176;18.088;2023-04-16T12:53:10;100979.00;;;
79488;BMP180;68949;53.176;18.088;2023-04-16T12:55:37;100989.00;;;
79488;BMP180;68949;53.176;18.088;2023-04-16T12:58:05;100993.40;;;
79488;BMP180;68949;53.176;18.088;2023-04-16T13:00:32;100986.80;;;
79488;BMP180;68949;53.176;18.088;2023-04-16T13:02:58;100991.60;;;
79488;BMP180;68949;53.176;18.088;2023-04-16T13:05:25;100995.60;;;
79488;BMP180;68949;53.176;18.088;2023-04-16T13:07:52;101001.00;;;
79488;BMP180;68949;53.176;18.088;2023-04-16T13:10:20;100996.20;;;
79488;BMP180;68949;53.176;18.088;2023-04-16T13:12:47;100996.00;;;
79488;BMP180;68949;53.176;18.088;2023-04-16T13:15:14;101002.40;;;
79488;BMP180;68949;53.176;18.088;2023-04-16T13:17:41;101003.40;;;
79488;BMP180;68949;53.176;18.088;2023-04-16T13:20:08;100999.80;;;
79488;BMP180;68949;53.176;18.088;2023-04-16T13:22:35;101004.00;;;
79488;BMP180;68949;53.176;18.088;2023-04-16T13:25:02;101002.40;;;
79488;BMP180;68949;53.176;18.088;2023-04-16T13:27:29;101003.00;;;
79488;BMP180;68949;53.176;18.088;2023-04-16T13:29:57;101005.20;;;
79488;BMP180;68949;53.176;18.088;2023-04-16T13:32:24;100997.60;;;
79488;BMP180;68949;53.176;18.088;2023-04-16T13:34:51;100998.00;;;
79488;BMP180;68949;53.176;18.088;2023-04-16T13:37:17;100993.60;;;
79488;BMP180;68949;53.176;18.088;2023-04-16T13:39:44;101002.20;;;
79488;BMP180;68949;53.176;18.088;2023-04-16T13:42:11;100997.00;;;
79488;BMP180;68949;53.176;18.088;2023-04-16T13:44:37;100998.00;;;
79488;BMP180;68949;53.176;18.088;2023-04-16T13:47:04;100995.00;;;
79488;BMP180;68949;53.176;18.088;2023-04-16T13:49:31;100999.20;;;
79488;BMP180;68949;53.176;18.088;2023-04-16T13:51:58;100999.60;;;
79488;BMP180;68949;53.176;18.088;2023-04-16T13:54:26;101000.80;;;
79488;BMP180;68949;53.176;18.088;2023-04-16T13:56:53;101004.80;;;
79488;BMP180;68949;53.176;18.088;2023-04-16T13:59:19;101001.60;;;
79488;BMP180;68949;53.176;18.088;2023-04-16T14:01:46;101002.80;;;
79488;BMP180;68949;53.176;18.088;2023-04-16T14:04:13;100999.20;;;
79488;BMP180;68949;53.176;18.088;2023-04-16T14:06:40;101001.00;;;
79488;BMP180;68949;53.176;18.088;2023-04-16T14:09:07;100999.40;;;
79488;BMP180;68949;53.176;18.088;2023-04-16T14:11:36;100994.40;;;
79488;BMP180;68949;53.176;18.088;2023-04-16T14:14:02;100993.60;;;
79488;BMP180;68949;53.176;18.088;2023-04-16T14:16:30;100994.00;;;
79488;BMP180;68949;53.176;18.088;2023-04-16T14:18:56;100991.20;;;
79488;BMP180;68949;53.176;18.088;2023-04-16T14:21:23;101001.00;;;
79488;BMP180;68949;53.176;18.088;2023-04-16T14:23:50;100997.60;;;
79488;BMP180;68949;53.176;18.088;2023-04-16T14:26:16;101001.60;;;
79488;BMP180;68949;53.176;18.088;2023-04-16T14:28:43;100999.60;;;
79488;BMP180;68949;53.176;18.088;2023-04-16T14:31:10;101003.60;;;
79488;BMP180;68949;53.176;18.088;2023-04-16T14:33:36;101001.60;;;
79488;BMP180;68949;53.176;18.088;2023-04-16T14:36:04;101004.00;;;
79488;BMP180;68949;53.176;18.088;2023-04-16T14:38:30;101005.00;;;
79488;BMP180;68949;53.176;18.088;2023-04-16T14:40:57;101004.00;;;
79488;BMP180;68949;53.176;18.088;2023-04-16T14:43:25;101006.80;;;
79488;BMP180;68949;53.176;18.088;2023-04-16T14:45:52;101013.20;;;
79488;BMP180;68949;53.176;18.088;2023-04-16T14:48:19;101015.80;;;
79488;BMP180;68949;53.176;18.088;2023-04-16T14:50:46;101010.20;;;
79488;BMP180;68949;53.176;18.088;2023-04-16T14:53:13;101011.00;;;
79488;BMP180;68949;53.176;18.088;2023-04-16T14:55:40;101008.60;;;